sensor_id;sensor_type;location;lat;lon;timestamp;P1;durP1;ratioP1;P2;durP2;ratioP2
8476;SDS011;4275;42.854;23.222;2024-03-23T00:52:36;14.50;;;14.00;;
8476;SDS011;4275;42.854;23.222;2024-03-23T00:55:02;14.53;;;14.03;;
8476;SDS011;4275;42.854;23.222;2024-03-23T00:57:29;14.33;;;13.83;;
8476;SDS011;4275;42.854;23.222;2024-03-23T00:59:55;14.33;;;13.83;;
8476;SDS011;4275;42.854;23.222;2024-03-23T01:02:22;15.33;;;14.73;;
8476;SDS011;4275;42.854;23.222;2024-03-23T01:04:48;14.97;;;14.47;;
8476;SDS011;4275;42.854;23.222;2024-03-23T01:07:15;15.07;;;14.57;;
8476;SDS011;4275;42.854;23.222;2024-03-23T01:09:42;16.40;;;15.70;;
8476;SDS011;4275;42.854;23.222;2024-03-23T01:12:09;16.67;;;15.97;;
8476;SDS011;4275;42.854;23.222;2024-03-23T01:14:35;15.73;;;15.13;;
8476;SDS011;4275;42.854;23.222;2024-03-23T01:17:08;13.97;;;13.47;;
8476;SDS011;4275;42.854;23.222;2024-03-23T01:19:35;13.60;;;13.10;;
8476;SDS011;4275;42.854;23.222;2024-03-23T01:22:04;14.20;;;13.70;;
8476;SDS011;4275;42.854;23.222;2024-03-23T01:24:30;14.00;;;13.50;;
8476;SDS011;4275;42.854;23.222;2024-03-23T01:26:58;13.80;;;13.30;;
8476;SDS011;4275;42.854;23.222;2024-03-23T01:29:24;13.90;;;13.40;;
8476;SDS011;4275;42.854;23.222;2024-03-23T01:31:51;14.33;;;13.83;;
8476;SDS011;4275;42.854;23.222;2024-03-23T01:34:17;13.37;;;12.93;;
8476;SDS011;4275;42.854;23.222;2024-03-23T01:36:46;13.60;;;13.10;;
8476;SDS011;4275;42.854;23.222;2024-03-23T01:39:12;13.60;;;13.13;;
8476;SDS011;4275;42.854;23.222;2024-03-23T01:41:39;13.20;;;12.80;;
8476;SDS011;4275;42.854;23.222;2024-03-23T01:44:09;13.00;;;12.60;;
8476;SDS011;4275;42.854;23.222;2024-03-23T01:46:36;13.37;;;12.97;;
8476;SDS011;4275;42.854;23.222;2024-03-23T01:49:03;13.10;;;12.70;;
8476;SDS011;4275;42.854;23.222;2024-03-23T01:51:31;13.30;;;12.90;;
8476;SDS011;4275;42.854;23.222;2024-03-23T01:53:59;13.47;;;13.07;;
8476;SDS011;4275;42.854;23.222;2024-03-23T01:56:28;13.40;;;13.00;;
8476;SDS011;4275;42.854;23.222;2024-03-23T01:58:55;13.90;;;13.40;;
8476;SDS011;4275;42.854;23.222;2024-03-23T02:01:24;14.10;;;13.60;;
8476;SDS011;4275;42.854;23.222;2024-03-23T02:03:50;14.13;;;13.63;;
8476;SDS011;4275;42.854;23.222;2024-03-23T02:06:17;15.30;;;14.80;;
8476;SDS011;4275;42.854;23.222;2024-03-23T02:08:43;13.20;;;12.80;;
8476;SDS011;4275;42.854;23.222;2024-03-23T02:11:10;13.10;;;12.70;;
8476;SDS011;4275;42.854;23.222;2024-03-23T02:13:36;14.57;;;14.07;;
8476;SDS011;4275;42.854;23.222;2024-03-23T02:16:04;14.27;;;13.77;;
8476;SDS011;4275;42.854;23.222;2024-03-23T02:18:32;14.10;;;13.60;;
8476;SDS011;4275;42.854;23.222;2024-03-23T02:20:59;13.80;;;13.30;;
8476;SDS011;4275;42.854;23.222;2024-03-23T02:23:26;14.57;;;14.07;;
8476;SDS011;4275;42.854;23.222;2024-03-23T02:25:53;12.77;;;12.37;;
8476;SDS011;4275;42.854;23.222;2024-03-23T02:28:19;12.67;;;12.27;;
8476;SDS011;4275;42.854;23.222;2024-03-23T02:30:47;11.93;;;11.53;;
8476;SDS011;4275;42.854;23.222;2024-03-23T02:33:13;11.73;;;11.33;;
8476;SDS011;4275;42.854;23.222;2024-03-23T02:35:40;11.27;;;10.97;;
8476;SDS011;4275;42.854;23.222;2024-03-23T02:38:06;11.40;;;11.10;;
8476;SDS011;4275;42.854;23.222;2024-03-23T02:40:34;12.37;;;11.97;;
8476;SDS011;4275;42.854;23.222;2024-03-23T02:43:02;12.37;;;11.97;;
8476;SDS011;4275;42.854;23.222;2024-03-23T02:45:29;12.50;;;12.10;;
8476;SDS011;4275;42.854;23.222;2024-03-23T02:47:55;13.03;;;12.63;;
8476;SDS011;4275;42.854;23.222;2024-03-23T02:50:22;12.30;;;11.90;;
8476;SDS011;4275;42.854;23.222;2024-03-23T02:52:48;12.73;;;12.33;;
8476;SDS011;4275;42.854;23.222;2024-03-23T02:55:16;12.80;;;12.40;;
8476;SDS011;4275;42.854;23.222;2024-03-23T02:57:43;12.63;;;12.23;;
8476;SDS011;4275;42.854;23.222;2024-03-23T03:00:10;11.97;;;11.57;;
8476;SDS011;4275;42.854;23.222;2024-03-23T03:02:38;11.70;;;11.40;;
8476;SDS011;4275;42.854;23.222;2024-03-23T03:05:05;11.93;;;11.53;;
8476;SDS011;4275;42.854;23.222;2024-03-23T03:07:32;12.60;;;12.20;;
8476;SDS011;4275;42.854;23.222;2024-03-23T03:09:59;13.20;;;12.80;;
8476;SDS011;4275;42.854;23.222;2024-03-23T03:12:24;13.70;;;13.20;;
8476;SDS011;4275;42.854;23.222;2024-03-23T03:14:53;13.60;;;13.10;;
8476;SDS011;4275;42.854;23.222;2024-03-23T03:17:19;13.40;;;13.00;;
8476;SDS011;4275;42.854;23.222;2024-03-23T03:19:46;13.57;;;13.17;;
8476;SDS011;4275;42.854;23.222;2024-03-23T03:22:12;12.73;;;12.33;;
8476;SDS011;4275;42.854;23.222;2024-03-23T03:24:39;11.40;;;11.10;;
8476;SDS011;4275;42.854;23.222;2024-03-23T03:27:05;12.13;;;11.73;;
8476;SDS011;4275;42.854;23.222;2024-03-23T03:29:32;13.07;;;12.67;;
8476;SDS011;4275;42.854;23.222;2024-03-23T03:32:03;13.20;;;12.80;;
8476;SDS011;4275;42.854;23.222;2024-03-23T03:34:30;13.00;;;12.60;;
8476;SDS011;4275;42.854;23.222;2024-03-23T03:36:56;13.00;;;12.60;;
8476;SDS011;4275;42.854;23.222;2024-03-23T03:39:23;12.37;;;11.97;;
8476;SDS011;4275;42.854;23.222;2024-03-23T03:41:49;13.83;;;13.33;;
8476;SDS011;4275;42.854;23.222;2024-03-23T03:44:16;13.90;;;13.40;;
8476;SDS011;4275;42.854;23.222;2024-03-23T03:46:42;13.70;;;13.20;;
8476;SDS011;4275;42.854;23.222;2024-03-23T03:49:11;14.33;;;13.83;;
8476;SDS011;4275;42.854;23.222;2024-03-23T03:51:36;13.43;;;13.03;;
8476;SDS011;4275;42.854;23.222;2024-03-23T03:54:03;13.17;;;12.77;;
8476;SDS011;4275;42.854;23.222;2024-03-23T03:56:29;12.83;;;12.43;;
8476;SDS011;4275;42.854;23.222;2024-03-23T03:58:56;13.60;;;13.10;;
8476;SDS011;4275;42.854;23.222;2024-03-23T04:01:22;13.33;;;12.90;;
8476;SDS011;4275;42.854;23.222;2024-03-23T04:03:49;14.00;;;13.50;;
8476;SDS011;4275;42.854;23.222;2024-03-23T04:06:19;13.63;;;13.13;;
8476;SDS011;4275;42.854;23.222;2024-03-23T04:08:46;13.03;;;12.63;;
8476;SDS011;4275;42.854;23.222;2024-03-23T04:11:12;12.47;;;12.07;;
8476;SDS011;4275;42.854;23.222;2024-03-23T04:13:39;11.83;;;11.43;;
8476;SDS011;4275;42.854;23.222;2024-03-23T04:16:07;12.07;;;11.67;;
8476;SDS011;4275;42.854;23.222;2024-03-23T04:18:34;12.17;;;11.77;;
8476;SDS011;4275;42.854;23.222;2024-03-23T04:21:00;13.07;;;12.67;;
8476;SDS011;4275;42.854;23.222;2024-03-23T04:23:29;13.20;;;12.80;;
8476;SDS011;4275;42.854;23.222;2024-03-23T04:25:55;12.90;;;12.50;;
8476;SDS011;4275;42.854;23.222;2024-03-23T04:28:22;12.10;;;11.70;;
8476;SDS011;4275;42.854;23.222;2024-03-23T04:30:48;12.00;;;11.60;;
8476;SDS011;4275;42.854;23.222;2024-03-23T04:33:15;12.20;;;11.80;;
8476;SDS011;4275;42.854;23.222;2024-03-23T04:35:41;12.70;;;12.30;;
8476;SDS011;4275;42.854;23.222;2024-03-23T04:38:08;13.87;;;13.37;;
8476;SDS011;4275;42.854;23.222;2024-03-23T04:40:36;13.47;;;13.07;;
8476;SDS011;4275;42.854;23.222;2024-03-23T04:43:03;13.53;;;13.10;;
8476;SDS011;4275;42.854;23.222;2024-03-23T04:45:30;12.70;;;12.30;;
8476;SDS011;4275;42.854;23.222;2024-03-23T04:47:57;13.10;;;12.70;;
8476;SDS011;4275;42.854;23.222;2024-03-23T04:50:24;13.63;;;13.23;;
8476;SDS011;4275;42.854;23.222;2024-03-23T04:52:51;14.67;;;14.17;;
8476;SDS011;4275;42.854;23.222;2024-03-23T04:55:18;14.50;;;14.00;;
8476;SDS011;4275;42.854;23.222;2024-03-23T04:57:46;14.87;;;14.37;;
8476;SDS011;4275;42.854;23.222;2024-03-23T05:00:13;14.80;;;14.30;;
8476;SDS011;4275;42.854;23.222;2024-03-23T05:02:45;14.00;;;13.50;;
8476;SDS011;4275;42.854;23.222;2024-03-23T05:05:11;14.50;;;14.00;;
8476;SDS011;4275;42.854;23.222;2024-03-23T05:07:39;14.67;;;14.17;;
8476;SDS011;4275;42.854;23.222;2024-03-23T05:10:05;15.70;;;15.10;;
8476;SDS011;4275;42.854;23.222;2024-03-23T05:12:35;15.57;;;14.97;;
8476;SDS011;4275;42.854;23.222;2024-03-23T05:15:03;16.10;;;15.50;;
8476;SDS011;4275;42.854;23.222;2024-03-23T05:17:30;17.10;;;16.40;;
8476;SDS011;4275;42.854;23.222;2024-03-23T05:19:56;17.70;;;16.90;;
8476;SDS011;4275;42.854;23.222;2024-03-23T05:22:23;18.10;;;17.30;;
8476;SDS011;4275;42.854;23.222;2024-03-23T05:24:50;18.50;;;17.60;;
8476;SDS011;4275;42.854;23.222;2024-03-23T05:27:16;18.57;;;17.67;;
8476;SDS011;4275;42.854;23.222;2024-03-23T05:29:43;18.10;;;17.20;;
8476;SDS011;4275;42.854;23.222;2024-03-23T05:32:10;19.80;;;18.80;;
8476;SDS011;4275;42.854;23.222;2024-03-23T05:34:38;20.80;;;19.80;;
8476;SDS011;4275;42.854;23.222;2024-03-23T05:37:04;19.30;;;18.30;;
8476;SDS011;4275;42.854;23.222;2024-03-23T05:39:31;18.60;;;17.70;;
8476;SDS011;4275;42.854;23.222;2024-03-23T05:41:57;20.43;;;19.33;;
8476;SDS011;4275;42.854;23.222;2024-03-23T05:44:24;19.70;;;18.70;;
8476;SDS011;4275;42.854;23.222;2024-03-23T05:46:50;18.53;;;17.63;;
8476;SDS011;4275;42.854;23.222;2024-03-23T05:49:18;18.33;;;17.43;;
8476;SDS011;4275;42.854;23.222;2024-03-23T05:51:44;20.30;;;19.30;;
8476;SDS011;4275;42.854;23.222;2024-03-23T05:54:11;19.00;;;18.00;;
8476;SDS011;4275;42.854;23.222;2024-03-23T05:56:37;19.03;;;18.03;;
8476;SDS011;4275;42.854;23.222;2024-03-23T05:59:04;19.27;;;18.20;;
8476;SDS011;4275;42.854;23.222;2024-03-23T06:01:29;18.93;;;17.93;;
8476;SDS011;4275;42.854;23.222;2024-03-23T06:03:58;19.80;;;18.70;;
8476;SDS011;4275;42.854;23.222;2024-03-23T06:06:25;19.40;;;18.30;;
8476;SDS011;4275;42.854;23.222;2024-03-23T06:08:52;18.97;;;17.93;;
8476;SDS011;4275;42.854;23.222;2024-03-23T06:11:18;20.57;;;19.43;;
8476;SDS011;4275;42.854;23.222;2024-03-23T06:13:44;19.90;;;18.80;;
8476;SDS011;4275;42.854;23.222;2024-03-23T06:16:10;19.77;;;18.67;;
8476;SDS011;4275;42.854;23.222;2024-03-23T06:18:37;18.97;;;17.87;;
8476;SDS011;4275;42.854;23.222;2024-03-23T06:21:04;19.50;;;18.40;;
8476;SDS011;4275;42.854;23.222;2024-03-23T06:23:33;19.17;;;18.07;;
8476;SDS011;4275;42.854;23.222;2024-03-23T06:25:59;18.73;;;17.63;;
8476;SDS011;4275;42.854;23.222;2024-03-23T06:28:26;18.97;;;17.87;;
8476;SDS011;4275;42.854;23.222;2024-03-23T06:30:51;18.90;;;17.80;;
8476;SDS011;4275;42.854;23.222;2024-03-23T06:33:18;19.13;;;18.03;;
8476;SDS011;4275;42.854;23.222;2024-03-23T06:35:49;19.40;;;18.30;;
8476;SDS011;4275;42.854;23.222;2024-03-23T06:38:17;19.50;;;18.40;;
8476;SDS011;4275;42.854;23.222;2024-03-23T06:40:44;19.97;;;18.77;;
8476;SDS011;4275;42.854;23.222;2024-03-23T06:43:13;19.70;;;18.60;;
8476;SDS011;4275;42.854;23.222;2024-03-23T06:45:39;19.53;;;18.33;;
8476;SDS011;4275;42.854;23.222;2024-03-23T06:48:06;18.97;;;17.87;;
8476;SDS011;4275;42.854;23.222;2024-03-23T06:50:33;19.43;;;18.33;;
8476;SDS011;4275;42.854;23.222;2024-03-23T06:53:00;19.00;;;17.90;;
8476;SDS011;4275;42.854;23.222;2024-03-23T06:55:27;18.63;;;17.53;;
8476;SDS011;4275;42.854;23.222;2024-03-23T06:57:55;19.00;;;17.90;;
8476;SDS011;4275;42.854;23.222;2024-03-23T07:00:22;18.70;;;17.60;;
8476;SDS011;4275;42.854;23.222;2024-03-23T07:02:50;18.48;;;17.38;;
8476;SDS011;4275;42.854;23.222;2024-03-23T07:05:16;18.90;;;17.80;;
8476;SDS011;4275;42.854;23.222;2024-03-23T07:07:43;18.92;;;17.83;;
8476;SDS011;4275;42.854;23.222;2024-03-23T07:10:09;19.17;;;18.08;;
8476;SDS011;4275;42.854;23.222;2024-03-23T07:12:36;19.00;;;17.90;;
8476;SDS011;4275;42.854;23.222;2024-03-23T07:15:04;19.20;;;18.10;;
8476;SDS011;4275;42.854;23.222;2024-03-23T07:17:31;19.52;;;18.33;;
8476;SDS011;4275;42.854;23.222;2024-03-23T07:19:58;20.43;;;19.13;;
8476;SDS011;4275;42.854;23.222;2024-03-23T07:22:26;20.15;;;18.90;;
8476;SDS011;4275;42.854;23.222;2024-03-23T07:24:52;19.83;;;18.63;;
8476;SDS011;4275;42.854;23.222;2024-03-23T07:27:19;19.95;;;18.65;;
8476;SDS011;4275;42.854;23.222;2024-03-23T07:29:45;20.52;;;19.23;;
8476;SDS011;4275;42.854;23.222;2024-03-23T07:32:13;20.77;;;19.48;;
8476;SDS011;4275;42.854;23.222;2024-03-23T07:34:39;21.08;;;19.67;;
8476;SDS011;4275;42.854;23.222;2024-03-23T07:37:08;20.98;;;19.67;;
8476;SDS011;4275;42.854;23.222;2024-03-23T07:39:34;21.23;;;19.92;;
8476;SDS011;4275;42.854;23.222;2024-03-23T07:42:02;20.88;;;19.58;;
8476;SDS011;4275;42.854;23.222;2024-03-23T07:44:28;20.63;;;19.33;;
8476;SDS011;4275;42.854;23.222;2024-03-23T07:46:55;20.85;;;19.55;;
8476;SDS011;4275;42.854;23.222;2024-03-23T07:49:22;20.55;;;19.25;;
8476;SDS011;4275;42.854;23.222;2024-03-23T07:51:49;23.80;;;22.30;;
8476;SDS011;4275;42.854;23.222;2024-03-23T07:54:15;21.15;;;19.75;;
8476;SDS011;4275;42.854;23.222;2024-03-23T07:56:42;20.98;;;19.67;;
8476;SDS011;4275;42.854;23.222;2024-03-23T07:59:08;21.60;;;20.20;;
8476;SDS011;4275;42.854;23.222;2024-03-23T08:01:36;20.70;;;19.40;;
8476;SDS011;4275;42.854;23.222;2024-03-23T08:04:02;20.98;;;19.67;;
8476;SDS011;4275;42.854;23.222;2024-03-23T08:06:30;20.63;;;19.33;;
8476;SDS011;4275;42.854;23.222;2024-03-23T08:08:57;20.98;;;19.67;;
8476;SDS011;4275;42.854;23.222;2024-03-23T08:11:25;21.52;;;20.23;;
8476;SDS011;4275;42.854;23.222;2024-03-23T08:13:51;21.75;;;20.35;;
8476;SDS011;4275;42.854;23.222;2024-03-23T08:16:19;21.58;;;20.17;;
8476;SDS011;4275;42.854;23.222;2024-03-23T08:18:45;21.30;;;19.90;;
8476;SDS011;4275;42.854;23.222;2024-03-23T08:21:12;20.52;;;19.23;;
8476;SDS011;4275;42.854;23.222;2024-03-23T08:23:39;20.95;;;19.65;;
8476;SDS011;4275;42.854;23.222;2024-03-23T08:26:06;21.40;;;20.00;;
8476;SDS011;4275;42.854;23.222;2024-03-23T08:28:34;21.65;;;20.25;;
8476;SDS011;4275;42.854;23.222;2024-03-23T08:31:01;22.10;;;20.70;;
8476;SDS011;4275;42.854;23.222;2024-03-23T08:33:28;22.17;;;20.77;;
8476;SDS011;4275;42.854;23.222;2024-03-23T08:35:55;21.90;;;20.50;;
8476;SDS011;4275;42.854;23.222;2024-03-23T08:38:22;21.23;;;19.92;;
8476;SDS011;4275;42.854;23.222;2024-03-23T08:40:57;21.73;;;20.33;;
8476;SDS011;4275;42.854;23.222;2024-03-23T08:43:23;21.77;;;20.38;;
8476;SDS011;4275;42.854;23.222;2024-03-23T08:45:50;21.80;;;20.40;;
8476;SDS011;4275;42.854;23.222;2024-03-23T08:48:17;22.17;;;20.77;;
8476;SDS011;4275;42.854;23.222;2024-03-23T08:50:45;22.00;;;20.60;;
8476;SDS011;4275;42.854;23.222;2024-03-23T08:53:11;22.85;;;21.45;;
8476;SDS011;4275;42.854;23.222;2024-03-23T08:55:38;22.27;;;20.88;;
8476;SDS011;4275;42.854;23.222;2024-03-23T08:58:06;22.08;;;20.67;;
8476;SDS011;4275;42.854;23.222;2024-03-23T09:00:34;22.35;;;20.95;;
8476;SDS011;4275;42.854;23.222;2024-03-23T09:03:00;22.77;;;21.27;;
8476;SDS011;4275;42.854;23.222;2024-03-23T09:05:28;22.35;;;20.95;;
8476;SDS011;4275;42.854;23.222;2024-03-23T09:07:55;21.77;;;20.38;;
8476;SDS011;4275;42.854;23.222;2024-03-23T09:10:22;22.52;;;21.13;;
8476;SDS011;4275;42.854;23.222;2024-03-23T09:12:48;22.80;;;21.40;;
8476;SDS011;4275;42.854;23.222;2024-03-23T09:15:17;22.98;;;21.58;;
8476;SDS011;4275;42.854;23.222;2024-03-23T09:17:43;22.15;;;20.75;;
8476;SDS011;4275;42.854;23.222;2024-03-23T09:20:10;22.27;;;20.88;;
8476;SDS011;4275;42.854;23.222;2024-03-23T09:22:36;22.70;;;21.30;;
8476;SDS011;4275;42.854;23.222;2024-03-23T09:25:04;23.00;;;21.60;;
8476;SDS011;4275;42.854;23.222;2024-03-23T09:27:30;23.17;;;21.77;;
8476;SDS011;4275;42.854;23.222;2024-03-23T09:29:57;22.95;;;21.55;;
8476;SDS011;4275;42.854;23.222;2024-03-23T09:32:25;23.33;;;21.92;;
8476;SDS011;4275;42.854;23.222;2024-03-23T09:34:52;22.60;;;21.20;;
8476;SDS011;4275;42.854;23.222;2024-03-23T09:37:18;22.77;;;21.33;;
8476;SDS011;4275;42.854;23.222;2024-03-23T09:39:45;22.60;;;21.20;;
8476;SDS011;4275;42.854;23.222;2024-03-23T09:42:11;22.70;;;21.30;;
8476;SDS011;4275;42.854;23.222;2024-03-23T09:44:39;22.60;;;21.20;;
8476;SDS011;4275;42.854;23.222;2024-03-23T09:47:05;22.42;;;21.02;;
8476;SDS011;4275;42.854;23.222;2024-03-23T09:49:35;22.75;;;21.25;;
8476;SDS011;4275;42.854;23.222;2024-03-23T09:52:03;21.92;;;20.52;;
8476;SDS011;4275;42.854;23.222;2024-03-23T09:54:32;22.15;;;20.75;;
8476;SDS011;4275;42.854;23.222;2024-03-23T09:56:58;22.10;;;20.70;;
8476;SDS011;4275;42.854;23.222;2024-03-23T09:59:25;22.00;;;20.60;;
8476;SDS011;4275;42.854;23.222;2024-03-23T10:01:52;22.17;;;20.77;;
8476;SDS011;4275;42.854;23.222;2024-03-23T10:04:39;21.80;;;20.40;;
8476;SDS011;4275;42.854;23.222;2024-03-23T10:07:15;21.60;;;20.20;;
8476;SDS011;4275;42.854;23.222;2024-03-23T10:09:44;22.05;;;20.63;;
8476;SDS011;4275;42.854;23.222;2024-03-23T10:12:11;23.55;;;21.95;;
8476;SDS011;4275;42.854;23.222;2024-03-23T10:14:39;22.45;;;20.95;;
8476;SDS011;4275;42.854;23.222;2024-03-23T10:17:11;21.92;;;20.52;;
8476;SDS011;4275;42.854;23.222;2024-03-23T10:19:41;22.05;;;20.65;;
8476;SDS011;4275;42.854;23.222;2024-03-23T10:22:08;21.98;;;20.58;;
8476;SDS011;4275;42.854;23.222;2024-03-23T10:24:35;22.65;;;21.20;;
8476;SDS011;4275;42.854;23.222;2024-03-23T10:27:01;22.67;;;21.17;;
8476;SDS011;4275;42.854;23.222;2024-03-23T10:29:28;22.73;;;21.23;;
8476;SDS011;4275;42.854;23.222;2024-03-23T10:31:55;22.48;;;20.98;;
8476;SDS011;4275;42.854;23.222;2024-03-23T10:34:34;22.52;;;21.02;;
8476;SDS011;4275;42.854;23.222;2024-03-23T10:37:03;22.40;;;20.90;;
8476;SDS011;4275;42.854;23.222;2024-03-23T10:39:31;22.63;;;21.13;;
8476;SDS011;4275;42.854;23.222;2024-03-23T10:41:59;22.60;;;21.10;;
8476;SDS011;4275;42.854;23.222;2024-03-23T10:44:28;22.65;;;21.15;;
8476;SDS011;4275;42.854;23.222;2024-03-23T10:46:56;22.77;;;21.27;;
8476;SDS011;4275;42.854;23.222;2024-03-23T10:49:26;22.38;;;20.88;;
8476;SDS011;4275;42.854;23.222;2024-03-23T10:51:55;22.23;;;20.73;;
8476;SDS011;4275;42.854;23.222;2024-03-23T10:54:25;21.63;;;20.23;;
8476;SDS011;4275;42.854;23.222;2024-03-23T10:56:52;21.65;;;20.25;;
8476;SDS011;4275;42.854;23.222;2024-03-23T10:59:23;21.90;;;20.45;;
8476;SDS011;4275;42.854;23.222;2024-03-23T11:01:54;22.08;;;20.58;;
8476;SDS011;4275;42.854;23.222;2024-03-23T11:04:31;22.00;;;20.60;;
8476;SDS011;4275;42.854;23.222;2024-03-23T11:06:59;22.25;;;20.75;;
8476;SDS011;4275;42.854;23.222;2024-03-23T11:09:39;21.40;;;20.00;;
8476;SDS011;4275;42.854;23.222;2024-03-23T11:12:25;21.70;;;20.30;;
8476;SDS011;4275;42.854;23.222;2024-03-23T11:14:53;21.55;;;20.15;;
8476;SDS011;4275;42.854;23.222;2024-03-23T11:17:21;21.35;;;19.95;;
8476;SDS011;4275;42.854;23.222;2024-03-23T11:19:55;22.67;;;21.17;;
8476;SDS011;4275;42.854;23.222;2024-03-23T11:25:17;21.85;;;20.45;;
8476;SDS011;4275;42.854;23.222;2024-03-23T11:27:45;21.85;;;20.45;;
8476;SDS011;4275;42.854;23.222;2024-03-23T11:30:14;22.25;;;20.75;;
8476;SDS011;4275;42.854;23.222;2024-03-23T11:32:41;22.17;;;20.67;;
8476;SDS011;4275;42.854;23.222;2024-03-23T11:35:09;21.50;;;20.10;;
8476;SDS011;4275;42.854;23.222;2024-03-23T11:37:35;21.58;;;20.15;;
8476;SDS011;4275;42.854;23.222;2024-03-23T11:40:20;21.75;;;20.25;;
8476;SDS011;4275;42.854;23.222;2024-03-23T11:42:47;21.60;;;20.10;;
8476;SDS011;4275;42.854;23.222;2024-03-23T11:45:22;21.45;;;20.05;;
8476;SDS011;4275;42.854;23.222;2024-03-23T11:47:48;21.73;;;20.23;;
8476;SDS011;4275;42.854;23.222;2024-03-23T11:50:19;21.50;;;20.10;;
8476;SDS011;4275;42.854;23.222;2024-03-23T11:52:45;21.92;;;20.42;;
8476;SDS011;4275;42.854;23.222;2024-03-23T11:55:12;21.58;;;20.17;;
8476;SDS011;4275;42.854;23.222;2024-03-23T11:57:39;22.20;;;20.70;;
8476;SDS011;4275;42.854;23.222;2024-03-23T12:00:20;22.58;;;21.08;;
8476;SDS011;4275;42.854;23.222;2024-03-23T12:02:47;22.27;;;20.77;;
8476;SDS011;4275;42.854;23.222;2024-03-23T12:05:14;22.05;;;20.55;;
8476;SDS011;4275;42.854;23.222;2024-03-23T12:07:41;22.08;;;20.58;;
8476;SDS011;4275;42.854;23.222;2024-03-23T12:10:08;22.05;;;20.55;;
8476;SDS011;4275;42.854;23.222;2024-03-23T12:12:34;21.88;;;20.38;;
8476;SDS011;4275;42.854;23.222;2024-03-23T12:15:03;22.10;;;20.60;;
8476;SDS011;4275;42.854;23.222;2024-03-23T12:17:31;21.60;;;20.13;;
8476;SDS011;4275;42.854;23.222;2024-03-23T12:19:58;22.23;;;20.80;;
8476;SDS011;4275;42.854;23.222;2024-03-23T12:22:24;22.60;;;21.10;;
8476;SDS011;4275;42.854;23.222;2024-03-23T12:24:51;22.33;;;20.83;;
8476;SDS011;4275;42.854;23.222;2024-03-23T12:27:17;24.90;;;23.23;;
8476;SDS011;4275;42.854;23.222;2024-03-23T12:29:44;21.90;;;20.40;;
8476;SDS011;4275;42.854;23.222;2024-03-23T12:32:12;21.83;;;20.42;;
8476;SDS011;4275;42.854;23.222;2024-03-23T12:34:40;22.02;;;20.55;;
8476;SDS011;4275;42.854;23.222;2024-03-23T12:37:06;22.17;;;20.67;;
8476;SDS011;4275;42.854;23.222;2024-03-23T12:39:34;22.17;;;20.67;;
8476;SDS011;4275;42.854;23.222;2024-03-23T12:42:00;21.77;;;20.27;;
8476;SDS011;4275;42.854;23.222;2024-03-23T12:44:28;22.27;;;20.77;;
8476;SDS011;4275;42.854;23.222;2024-03-23T12:46:54;21.90;;;20.45;;
8476;SDS011;4275;42.854;23.222;2024-03-23T12:49:23;22.25;;;20.75;;
8476;SDS011;4275;42.854;23.222;2024-03-23T12:51:53;21.70;;;20.20;;
8476;SDS011;4275;42.854;23.222;2024-03-23T12:54:21;22.15;;;20.65;;
8476;SDS011;4275;42.854;23.222;2024-03-23T12:56:47;21.77;;;20.27;;
8476;SDS011;4275;42.854;23.222;2024-03-23T12:59:14;22.35;;;20.85;;
8476;SDS011;4275;42.854;23.222;2024-03-23T13:01:41;22.30;;;20.80;;
8476;SDS011;4275;42.854;23.222;2024-03-23T13:04:08;21.80;;;20.33;;
8476;SDS011;4275;42.854;23.222;2024-03-23T13:06:36;22.45;;;20.95;;
8476;SDS011;4275;42.854;23.222;2024-03-23T13:09:03;21.90;;;20.48;;
8476;SDS011;4275;42.854;23.222;2024-03-23T13:11:29;22.13;;;20.63;;
8476;SDS011;4275;42.854;23.222;2024-03-23T13:13:56;22.55;;;21.05;;
8476;SDS011;4275;42.854;23.222;2024-03-23T13:16:22;22.27;;;20.80;;
8476;SDS011;4275;42.854;23.222;2024-03-23T13:18:49;22.67;;;21.17;;
8476;SDS011;4275;42.854;23.222;2024-03-23T13:21:15;22.52;;;21.02;;
8476;SDS011;4275;42.854;23.222;2024-03-23T13:23:44;22.67;;;21.15;;
8476;SDS011;4275;42.854;23.222;2024-03-23T13:26:13;22.55;;;21.05;;
8476;SDS011;4275;42.854;23.222;2024-03-23T13:28:40;22.20;;;20.80;;
8476;SDS011;4275;42.854;23.222;2024-03-23T13:31:06;21.88;;;20.45;;
8476;SDS011;4275;42.854;23.222;2024-03-23T13:33:33;22.27;;;20.77;;
8476;SDS011;4275;42.854;23.222;2024-03-23T13:35:59;22.17;;;20.67;;
8476;SDS011;4275;42.854;23.222;2024-03-23T13:38:27;21.92;;;20.42;;
8476;SDS011;4275;42.854;23.222;2024-03-23T13:40:54;22.33;;;20.83;;
8476;SDS011;4275;42.854;23.222;2024-03-23T13:43:22;22.30;;;20.80;;
8476;SDS011;4275;42.854;23.222;2024-03-23T13:45:49;22.17;;;20.67;;
8476;SDS011;4275;42.854;23.222;2024-03-23T13:48:19;22.30;;;20.80;;
8476;SDS011;4275;42.854;23.222;2024-03-23T13:50:45;22.58;;;21.08;;
8476;SDS011;4275;42.854;23.222;2024-03-23T13:53:13;22.58;;;21.08;;
8476;SDS011;4275;42.854;23.222;2024-03-23T13:55:45;22.35;;;20.85;;
8476;SDS011;4275;42.854;23.222;2024-03-23T13:58:14;22.60;;;21.10;;
8476;SDS011;4275;42.854;23.222;2024-03-23T14:00:40;22.77;;;21.27;;
8476;SDS011;4275;42.854;23.222;2024-03-23T14:03:09;24.63;;;23.02;;
8476;SDS011;4275;42.854;23.222;2024-03-23T14:05:34;22.48;;;20.98;;
8476;SDS011;4275;42.854;23.222;2024-03-23T14:08:04;22.73;;;21.23;;
8476;SDS011;4275;42.854;23.222;2024-03-23T14:10:30;22.52;;;21.00;;
8476;SDS011;4275;42.854;23.222;2024-03-23T14:12:58;22.30;;;20.80;;
8476;SDS011;4275;42.854;23.222;2024-03-23T14:15:26;22.55;;;21.05;;
8476;SDS011;4275;42.854;23.222;2024-03-23T14:17:53;22.17;;;20.67;;
8476;SDS011;4275;42.854;23.222;2024-03-23T14:20:19;22.20;;;20.70;;
8476;SDS011;4275;42.854;23.222;2024-03-23T14:22:46;22.20;;;20.70;;
8476;SDS011;4275;42.854;23.222;2024-03-23T14:25:12;22.83;;;21.33;;
8476;SDS011;4275;42.854;23.222;2024-03-23T14:27:39;22.33;;;20.83;;
8476;SDS011;4275;42.854;23.222;2024-03-23T14:30:06;24.10;;;22.50;;
8476;SDS011;4275;42.854;23.222;2024-03-23T14:32:35;26.52;;;24.73;;
8476;SDS011;4275;42.854;23.222;2024-03-23T14:35:02;23.13;;;21.52;;
8476;SDS011;4275;42.854;23.222;2024-03-23T14:37:30;23.77;;;22.17;;
8476;SDS011;4275;42.854;23.222;2024-03-23T14:39:56;22.98;;;21.38;;
8476;SDS011;4275;42.854;23.222;2024-03-23T14:42:23;23.30;;;21.70;;
8476;SDS011;4275;42.854;23.222;2024-03-23T14:44:51;22.80;;;21.20;;
8476;SDS011;4275;42.854;23.222;2024-03-23T14:47:17;23.98;;;22.25;;
8476;SDS011;4275;42.854;23.222;2024-03-23T14:49:47;22.15;;;20.65;;
8476;SDS011;4275;42.854;23.222;2024-03-23T14:52:15;22.95;;;21.35;;
8476;SDS011;4275;42.854;23.222;2024-03-23T14:54:43;23.20;;;21.60;;
8476;SDS011;4275;42.854;23.222;2024-03-23T14:57:09;22.25;;;20.75;;
8476;SDS011;4275;42.854;23.222;2024-03-23T14:59:36;22.98;;;21.38;;
8476;SDS011;4275;42.854;23.222;2024-03-23T15:02:03;23.50;;;21.88;;
8476;SDS011;4275;42.854;23.222;2024-03-23T15:04:30;22.90;;;21.30;;
8476;SDS011;4275;42.854;23.222;2024-03-23T15:06:57;24.23;;;22.52;;
8476;SDS011;4275;42.854;23.222;2024-03-23T15:09:24;24.75;;;22.95;;
8476;SDS011;4275;42.854;23.222;2024-03-23T15:11:50;23.45;;;21.85;;
8476;SDS011;4275;42.854;23.222;2024-03-23T15:14:20;22.70;;;21.10;;
8476;SDS011;4275;42.854;23.222;2024-03-23T15:16:46;22.90;;;21.30;;
8476;SDS011;4275;42.854;23.222;2024-03-23T15:19:14;23.33;;;21.63;;
8476;SDS011;4275;42.854;23.222;2024-03-23T15:21:40;23.08;;;21.48;;
8476;SDS011;4275;42.854;23.222;2024-03-23T15:24:09;23.88;;;22.17;;
8476;SDS011;4275;42.854;23.222;2024-03-23T15:26:36;22.80;;;21.20;;
8476;SDS011;4275;42.854;23.222;2024-03-23T15:29:03;23.95;;;22.25;;